Time;durP1;ratioP1;P1;durP2;ratioP2;P2;SDS_P1;SDS_P2;PMS_P1;PMS_P2;Temp;Humidity;BMP_temperature;BMP_pressure;BME280_temperature;BME280_humidity;BME280_pressure;Samples;Min_cycle;Max_cycle;Signal;HPM_P1;HPM_P2
2021/09/06 05:15:52;;;;;;;31.27;21.10;;;12.40;75.80;;;;;;5290914;24;20141;-85
2021/09/06 05:18:21;;;;;;;29.90;21.30;;;12.40;76.00;;;;;;4808589;29;20129;-89
2021/09/06 05:20:56;;;;;;;29.30;21.30;;;12.50;76.00;;;;;;4826860;29;20126;-89
2021/09/06 05:23:22;;;;;;;30.38;23.25;;;12.50;76.10;;;;;;4811270;29;20076;-88
2021/09/06 05:25:48;;;;;;;30.92;22.77;;;12.60;76.00;;;;;;4810588;29;20038;-90
2021/09/06 05:28:14;;;;;;;32.00;22.95;;;12.60;76.00;;;;;;4810731;29;20073;-91
2021/09/06 05:30:42;;;;;;;30.90;22.77;;;12.60;76.00;;;;;;4811334;29;20122;-90
2021/09/06 05:33:14;;;;;;;35.88;25.83;;;12.60;75.90;;;;;;4796791;29;20393;-92
2021/09/06 05:35:40;;;;;;;37.05;26.08;;;12.70;76.00;;;;;;4811642;29;20030;-91
2021/09/06 05:38:10;;;;;;;39.20;27.00;;;12.70;75.90;;;;;;4811332;29;20031;-92
2021/09/06 05:40:36;;;;;;;41.38;27.98;;;12.80;76.10;;;;;;4811386;29;20129;-92
2021/09/06 05:59:58;;;;;;;60.38;38.50;;;13.20;76.70;;;;;;5240641;24;20030;-88
2021/09/06 06:02:25;;;;;;;54.92;36.17;;;13.30;76.70;;;;;;4825297;29;20049;-89
2021/09/06 06:04:53;;;;;;;53.67;34.58;;;13.40;76.70;;;;;;4812097;29;20433;-89
2021/09/06 06:07:18;;;;;;;60.83;36.67;;;13.40;76.70;;;;;;4795877;29;20085;-89
2021/09/06 06:09:46;;;;;;;46.10;32.00;;;13.50;76.70;;;;;;4796680;29;20495;-88
2021/09/06 06:12:14;;;;;;;48.50;34.80;;;13.60;77.00;;;;;;4825822;29;20030;-88
2021/09/06 06:14:43;;;;;;;47.85;31.88;;;13.70;77.20;;;;;;4794733;29;20491;-88
2021/09/06 06:17:09;;;;;;;52.03;34.72;;;13.70;77.20;;;;;;4811028;29;20030;-82
2021/09/06 06:19:38;;;;;;;44.90;30.15;;;13.80;77.00;;;;;;4825592;29;20030;-89
2021/09/06 06:22:03;;;;;;;49.25;29.92;;;13.90;77.20;;;;;;4810155;29;20398;-86
2021/09/06 06:24:29;;;;;;;46.72;29.20;;;14.00;77.10;;;;;;4807058;29;20026;-89
2021/09/06 06:27:07;;;;;;;39.72;25.60;;;14.10;77.10;;;;;;4794547;29;20070;-86
2021/09/06 06:29:33;;;;;;;42.50;26.95;;;14.20;77.10;;;;;;4794558;29;20026;-86
2021/09/06 06:32:05;;;;;;;46.50;26.45;;;14.30;77.30;;;;;;4809750;29;20117;-86
2021/09/06 06:34:31;;;;;;;47.30;29.10;;;14.40;77.20;;;;;;4809412;29;20030;-86
2021/09/06 06:36:56;;;;;;;45.05;27.70;;;14.40;77.10;;;;;;4809499;29;20030;-86
2021/09/06 06:39:25;;;;;;;38.67;24.33;;;14.50;77.10;;;;;;4794040;29;20034;-83
2021/09/06 06:41:51;;;;;;;38.58;23.10;;;14.60;77.30;;;;;;4809143;29;20055;-87
2021/09/06 06:44:21;;;;;;;42.90;24.55;;;14.60;77.30;;;;;;4826611;29;20031;-89
2021/09/06 06:46:50;;;;;;;37.00;23.77;;;14.70;77.60;;;;;;4809463;29;20035;-88
2021/09/06 06:49:16;;;;;;;40.97;22.65;;;14.80;77.50;;;;;;4809808;29;20037;-89
2021/09/06 06:51:42;;;;;;;35.33;20.65;;;15.00;77.40;;;;;;4809948;29;20026;-89
2021/09/06 06:54:09;;;;;;;29.00;19.55;;;15.00;77.50;;;;;;4810388;29;20079;-90
2021/09/06 06:56:36;;;;;;;31.30;18.85;;;15.10;77.50;;;;;;4794820;29;20483;-90
2021/09/06 06:59:05;;;;;;;28.13;16.95;;;15.20;77.60;;;;;;4810565;29;20076;-88
2021/09/06 07:01:32;;;;;;;25.83;15.73;;;15.30;77.80;;;;;;4809153;29;20066;-86
2021/09/06 07:04:00;;;;;;;20.58;14.48;;;15.40;77.90;;;;;;4809017;29;20058;-87
2021/09/06 07:06:26;;;;;;;20.05;14.48;;;15.50;78.10;;;;;;4809070;29;20030;-87
2021/09/06 07:08:52;;;;;;;16.95;13.95;;;15.60;78.30;;;;;;4808652;29;20045;-87
2021/09/06 07:11:19;;;;;;;19.73;13.98;;;15.80;78.20;;;;;;4808882;29;20129;-87
2021/09/06 07:14:02;;;;;;;20.52;14.75;;;16.00;78.10;;;;;;4809089;29;20030;-92
2021/09/06 07:16:27;;;;;;;18.08;13.20;;;16.10;78.10;;;;;;4794583;29;20138;-86
2021/09/06 07:18:53;;;;;;;23.48;14.38;;;16.20;78.00;;;;;;4807841;29;20113;-85
2021/09/06 07:21:27;;;;;;;18.13;13.30;;;16.30;77.90;;;;;;4807963;29;20140;-84
2021/09/06 07:24:04;;;;;;;16.05;11.85;;;16.40;78.00;;;;;;4793182;29;20095;-85
2021/09/06 07:26:35;;;;;;;19.65;11.95;;;16.60;77.70;;;;;;4808647;29;20487;-90
2021/09/06 07:29:02;;;;;;;24.85;12.43;;;16.70;77.90;;;;;;4809033;29;20035;-88
2021/09/06 07:31:28;;;;;;;24.13;11.85;;;16.80;77.60;;;;;;4793524;29;20138;-87
2021/09/06 07:33:54;;;;;;;22.48;12.23;;;16.90;77.50;;;;;;4808705;29;20084;-86
2021/09/06 07:36:23;;;;;;;17.17;11.63;;;17.00;78.10;;;;;;4808441;29;20042;-86
2021/09/06 07:38:49;;;;;;;19.40;10.85;;;17.10;77.60;;;;;;4808744;29;20095;-89
2021/09/06 07:41:15;;;;;;;25.15;11.18;;;17.30;77.60;;;;;;4807649;29;20038;-85
2021/09/06 07:43:43;;;;;;;16.48;10.05;;;17.50;77.30;;;;;;4793196;29;20035;-86
2021/09/06 07:46:10;;;;;;;16.63;10.27;;;17.60;77.20;;;;;;4825096;29;20471;-85
2021/09/06 07:48:36;;;;;;;17.33;10.48;;;17.70;77.10;;;;;;4793464;29;20117;-83
2021/09/06 07:51:08;;;;;;;16.20;10.05;;;17.80;76.60;;;;;;4807917;29;20069;-86
2021/09/06 07:53:33;;;;;;;17.58;9.93;;;17.90;76.70;;;;;;4824748;29;20025;-86
2021/09/06 07:55:59;;;;;;;24.23;9.65;;;18.00;76.80;;;;;;4792813;29;20034;-87
2021/09/06 07:58:25;;;;;;;15.70;9.38;;;18.10;76.70;;;;;;4824721;29;20026;-86
2021/09/06 08:00:51;;;;;;;17.65;9.05;;;18.30;76.60;;;;;;4811629;29;20050;-87
2021/09/06 08:03:17;;;;;;;14.93;8.82;;;18.40;76.50;;;;;;4825799;29;20038;-88
2021/09/06 08:05:43;;;;;;;13.75;9.48;;;18.50;76.40;;;;;;4808596;29;20187;-87
2021/09/06 08:08:14;;;;;;;12.73;8.75;;;18.70;76.60;;;;;;4793451;29;20030;-88
2021/09/06 08:10:40;;;;;;;12.48;8.40;;;18.90;76.60;;;;;;4811148;29;20376;-85
2021/09/06 08:13:06;;;;;;;14.00;8.23;;;19.10;76.10;;;;;;4824931;29;20368;-89
2021/09/06 08:15:33;;;;;;;11.85;8.40;;;19.20;75.90;;;;;;4794153;29;20463;-89
2021/09/06 08:18:01;;;;;;;13.35;8.10;;;19.40;75.10;;;;;;4809291;29;20055;-87
2021/09/06 08:20:29;;;;;;;14.40;8.68;;;19.40;74.70;;;;;;4793017;29;20669;-86
2021/09/06 08:23:01;;;;;;;12.88;8.48;;;19.50;74.50;;;;;;4824559;29;20069;-89
2021/09/06 08:25:27;;;;;;;12.48;8.15;;;19.60;74.50;;;;;;4808755;29;20066;-85
2021/09/06 08:27:53;;;;;;;13.00;8.55;;;19.80;74.50;;;;;;4792880;29;20070;-87
2021/09/06 08:30:19;;;;;;;14.10;8.43;;;19.90;74.10;;;;;;4807505;29;20487;-85
2021/09/06 08:32:45;;;;;;;13.48;8.43;;;20.00;74.00;;;;;;4823666;29;20030;-84
2021/09/06 08:35:12;;;;;;;12.05;8.30;;;20.20;74.10;;;;;;4807626;29;20042;-83
2021/09/06 08:37:38;;;;;;;11.25;7.68;;;20.30;73.60;;;;;;4824194;29;20030;-83
2021/09/06 08:40:05;;;;;;;12.43;7.95;;;20.40;73.50;;;;;;4823620;29;20042;-83
2021/09/06 08:42:31;;;;;;;12.00;7.32;;;20.60;73.30;;;;;;4807692;29;20133;-84
2021/09/06 08:44:57;;;;;;;12.15;7.18;;;20.70;73.10;;;;;;4791671;29;20084;-85
2021/09/06 08:47:23;;;;;;;11.80;7.47;;;20.80;72.60;;;;;;4807667;29;20110;-84
2021/09/06 08:49:51;;;;;;;13.13;7.57;;;20.90;72.20;;;;;;4792654;29;20514;-85
2021/09/06 08:52:17;;;;;;;11.95;7.22;;;21.10;71.90;;;;;;4823489;29;20377;-85
2021/09/06 08:54:43;;;;;;;11.52;6.93;;;21.20;71.80;;;;;;4819470;29;20054;-85
2021/09/06 08:57:09;;;;;;;11.20;7.40;;;21.30;71.70;;;;;;4827080;29;20030;-84
2021/09/06 08:59:39;;;;;;;10.75;6.65;;;21.40;71.50;;;;;;4834662;29;20054;-84
2021/09/06 09:02:05;;;;;;;11.00;6.78;;;21.60;71.40;;;;;;4844918;29;20042;-84
2021/09/06 09:04:31;;;;;;;11.95;6.65;;;21.70;71.10;;;;;;4828850;29;20037;-83
2021/09/06 09:06:59;;;;;;;11.57;7.10;;;21.80;71.10;;;;;;4828616;29;20087;-84
2021/09/06 09:09:36;;;;;;;13.52;6.88;;;21.90;70.70;;;;;;4845370;29;20475;-89
2021/09/06 09:12:23;;;;;;;10.32;6.70;;;22.10;70.60;;;;;;4828590;29;20034;-85
2021/09/06 09:14:51;;;;;;;11.68;6.70;;;22.30;70.20;;;;;;4828315;29;20120;-85
2021/09/06 09:17:18;;;;;;;11.02;6.68;;;22.40;69.90;;;;;;4828574;29;20026;-85
2021/09/06 09:19:44;;;;;;;11.73;6.85;;;22.50;69.80;;;;;;4828446;29;20060;-85
2021/09/06 09:22:16;;;;;;;12.65;6.93;;;22.60;69.40;;;;;;4827961;29;20044;-86
2021/09/06 09:24:42;;;;;;;11.50;6.57;;;22.70;69.20;;;;;;4844939;29;20053;-86
2021/09/06 09:27:15;;;;;;;11.98;6.47;;;22.80;68.90;;;;;;4828673;29;20038;-87
2021/09/06 09:29:44;;;;;;;10.95;6.57;;;22.90;68.90;;;;;;4828496;29;20034;-86
2021/09/06 09:32:12;;;;;;;10.65;6.25;;;23.20;68.80;;;;;;4827686;29;20435;-85
2021/09/06 09:34:40;;;;;;;11.40;6.53;;;23.30;68.30;;;;;;4828733;29;20037;-86
2021/09/06 09:37:07;;;;;;;21.00;6.68;;;23.50;68.10;;;;;;4828381;29;20034;-86
2021/09/06 09:39:35;;;;;;;16.02;6.57;;;23.60;67.80;;;;;;4828344;29;20032;-86
2021/09/06 09:42:10;;;;;;;11.82;6.47;;;23.80;67.70;;;;;;4798473;29;20518;-86
2021/09/06 09:44:50;;;;;;;15.43;6.68;;;24.00;67.40;;;;;;4828374;29;20036;-82
2021/09/06 09:47:20;;;;;;;13.75;6.63;;;24.20;66.90;;;;;;4828188;29;20478;-85
2021/09/06 09:49:48;;;;;;;10.45;6.00;;;24.30;67.30;;;;;;4845103;29;20386;-86
2021/09/06 09:52:15;;;;;;;11.57;6.45;;;24.40;66.30;;;;;;4844436;29;20042;-86
2021/09/06 09:54:53;;;;;;;11.68;6.10;;;24.60;66.20;;;;;;4828247;29;20041;-85
2021/09/06 09:57:19;;;;;;;14.35;6.25;;;24.80;66.00;;;;;;4829502;29;20033;-85
2021/09/06 09:59:47;;;;;;;9.93;5.82;;;25.10;65.70;;;;;;4844337;29;20054;-86
2021/09/06 10:02:32;;;;;;;10.45;5.93;;;25.30;65.00;;;;;;4827469;29;20065;-85
2021/09/06 10:05:07;;;;;;;10.38;5.70;;;25.40;64.40;;;;;;4823895;29;20080;-85
2021/09/06 10:07:41;;;;;;;10.00;5.63;;;25.60;64.10;;;;;;4809921;29;20035;-84
2021/09/06 10:10:23;;;;;;;13.43;5.85;;;25.80;63.60;;;;;;4809697;29;20109;-83
2021/09/06 10:13:08;;;;;;;9.00;5.05;;;26.00;63.00;;;;;;4781795;29;20042;-90
2021/09/06 10:16:01;;;;;;;9.68;5.40;;;26.20;62.90;;;;;;4810841;29;20038;-84
2021/09/06 10:18:38;;;;;;;12.23;5.18;;;26.50;62.70;;;;;;4785462;29;20046;-84
2021/09/06 10:21:40;;;;;;;10.00;5.63;;;26.70;62.30;;;;;;4809517;29;20125;-84
2021/09/06 10:24:20;;;;;;;10.18;5.45;;;27.00;61.80;;;;;;4809431;29;20026;-84
2021/09/06 10:26:49;;;;;;;9.52;5.13;;;27.30;61.50;;;;;;4809435;29;20053;-84
2021/09/06 10:29:23;;;;;;;12.20;5.07;;;27.60;60.90;;;;;;4809431;29;20071;-84
2021/09/06 10:35:21;;;;;;;8.68;4.82;;;28.40;60.80;;;;;;4825833;29;20034;-84
2021/09/06 10:37:58;;;;;;;9.50;5.10;;;28.90;60.50;;;;;;4809411;29;20034;-84
2021/09/06 10:40:32;;;;;;;8.25;4.72;;;29.30;59.90;;;;;;4839820;29;20029;-85
2021/09/06 10:42:57;;;;;;;;;;;29.80;59.40;;;;;;4827752;29;20045;-85
2021/09/06 10:45:27;;;;;;;8.07;4.70;;;30.30;59.80;;;;;;4828797;29;19908;-84
2021/09/06 10:48:07;;;;;;;8.60;5.03;;;30.80;59.00;;;;;;4849902;29;20033;-85
2021/09/06 10:50:37;;;;;;;8.80;4.70;;;31.40;58.00;;;;;;4829882;29;20030;-84
2021/09/06 10:53:05;;;;;;;8.50;4.65;;;31.90;56.90;;;;;;4829417;29;20432;-84
2021/09/06 10:55:33;;;;;;;8.23;4.60;;;32.40;55.80;;;;;;4798035;29;20034;-85
2021/09/06 10:58:00;;;;;;;9.23;5.10;;;32.80;54.10;;;;;;4794017;29;20041;-88
2021/09/06 11:00:28;;;;;;;8.13;4.47;;;33.20;53.90;;;;;;4823216;29;20117;-87
2021/09/06 11:03:05;;;;;;;9.13;4.43;;;33.70;53.00;;;;;;4828386;29;20041;-90
2021/09/06 11:05:32;;;;;;;9.18;4.10;;;34.30;51.80;;;;;;4827369;29;20109;-89
2021/09/06 11:08:37;;;;;;;7.32;3.83;;;34.60;50.70;;;;;;4827532;29;20539;-87
2021/09/06 11:11:05;;;;;;;9.55;4.22;;;35.00;49.40;;;;;;4827009;29;20033;-89
2021/09/06 11:13:51;;;;;;;7.10;3.83;;;35.40;48.70;;;;;;4827794;29;20026;-86
2021/09/06 11:16:19;;;;;;;7.75;4.18;;;35.70;47.60;;;;;;4827225;29;20125;-85
2021/09/06 11:18:50;;;;;;;8.05;3.97;;;36.10;47.10;;;;;;4843860;29;20030;-85
2021/09/06 11:21:21;;;;;;;7.40;3.92;;;36.40;45.70;;;;;;4827047;29;20038;-88
2021/09/06 11:23:48;;;;;;;10.20;5.97;;;36.70;45.00;;;;;;4827303;29;20038;-87
2021/09/06 11:26:27;;;;;;;7.18;3.88;;;36.90;44.00;;;;;;4843431;29;20060;-84
2021/09/06 11:28:56;;;;;;;7.93;3.90;;;37.30;43.30;;;;;;4827279;29;20029;-87
2021/09/06 11:31:23;;;;;;;7.88;4.28;;;37.60;42.50;;;;;;4827110;29;20033;-86
2021/09/06 11:34:04;;;;;;;11.73;8.27;;;38.00;41.90;;;;;;4827352;29;20065;-86
2021/09/06 11:36:33;;;;;;;11.88;8.25;;;38.30;40.60;;;;;;4843295;29;20486;-85
2021/09/06 11:39:00;;;;;;;9.13;4.53;;;38.70;40.00;;;;;;4842712;29;20533;-88
2021/09/06 11:41:28;;;;;;;8.55;5.03;;;39.00;39.40;;;;;;4825376;29;20483;-87
2021/09/06 11:43:54;;;;;;;19.40;17.33;;;39.30;38.60;;;;;;4796590;29;20041;-88
2021/09/06 11:46:30;;;;;;;9.10;5.40;;;39.50;37.60;;;;;;4825491;29;20499;-84
2021/09/06 11:49:04;;;;;;;8.52;4.30;;;39.90;37.20;;;;;;4825506;29;20350;-84
2021/09/06 11:51:29;;;;;;;9.18;4.15;;;40.20;36.10;;;;;;4813208;29;20125;-84
2021/09/06 11:54:00;;;;;;;7.22;4.15;;;40.50;36.10;;;;;;4843378;29;20061;-84
2021/09/06 11:56:28;;;;;;;9.00;4.13;;;40.90;35.00;;;;;;4828090;29;20037;-84
2021/09/06 11:59:00;;;;;;;7.60;3.80;;;41.20;34.40;;;;;;4829722;29;20049;-83
2021/09/06 12:01:26;;;;;;;;;;;41.40;33.80;;;;;;4863692;29;20038;-82
2021/09/06 12:04:09;;;;;;;7.80;3.88;;;41.60;33.90;;;;;;4846382;29;19976;-82
2021/09/06 12:06:41;;;;;;;6.80;4.05;;;41.90;33.50;;;;;;4845173;29;20035;-83
2021/09/06 12:09:08;;;;;;;8.07;4.40;;;42.20;32.60;;;;;;4841439;29;20382;-83
2021/09/06 12:11:39;;;;;;;8.95;3.78;;;42.30;31.80;;;;;;4826071;29;20042;-82
2021/09/06 12:14:09;;;;;;;9.05;4.00;;;41.60;30.00;;;;;;4825880;29;20079;-82
2021/09/06 12:16:35;;;;;;;7.30;4.00;;;40.60;30.00;;;;;;4845182;29;20053;-82
2021/09/06 12:19:16;;;;;;;8.13;4.25;;;40.40;31.30;;;;;;4847360;29;20026;-82
2021/09/06 12:21:43;;;;;;;7.30;4.20;;;40.80;31.50;;;;;;4846978;29;20045;-83
2021/09/06 12:24:10;;;;;;;8.15;4.28;;;41.40;31.20;;;;;;4843272;29;20497;-82
2021/09/06 12:26:48;;;;;;;8.07;4.30;;;41.80;30.40;;;;;;4844519;29;20053;-83
2021/09/06 12:29:29;;;;;;;6.80;3.88;;;42.30;30.00;;;;;;4845318;29;20352;-82
2021/09/06 12:31:57;;;;;;;8.93;4.10;;;42.70;29.80;;;;;;4846240;29;20498;-82
2021/09/06 12:34:23;;;;;;;7.30;4.05;;;42.70;29.10;;;;;;4829668;29;20475;-82
2021/09/06 12:36:50;;;;;;;7.07;3.88;;;41.90;28.20;;;;;;4829272;29;20134;-82
2021/09/06 12:39:19;;;;;;;7.22;3.58;;;41.60;29.10;;;;;;4846229;29;20026;-82
2021/09/06 12:41:44;;;;;;;6.57;3.42;;;41.50;28.40;;;;;;4829447;29;20046;-82
2021/09/06 12:44:10;;;;;;;6.93;3.78;;;40.70;27.80;;;;;;4830000;29;20030;-82
2021/09/06 12:46:36;;;;;;;7.93;3.90;;;39.90;27.90;;;;;;4829736;29;20547;-82
2021/09/06 12:49:05;;;;;;;8.02;3.92;;;39.10;28.00;;;;;;4829415;29;20034;-81
2021/09/06 12:51:33;;;;;;;7.95;3.88;;;38.70;28.70;;;;;;4845975;29;20391;-82
2021/09/06 12:53:59;;;;;;;7.70;3.90;;;38.30;28.50;;;;;;4845821;29;20063;-82
2021/09/06 12:56:24;;;;;;;7.95;3.88;;;38.60;29.50;;;;;;4829157;29;20434;-82
2021/09/06 12:58:51;;;;;;;6.93;3.75;;;39.50;29.80;;;;;;4829477;29;20361;-82
2021/09/06 13:01:18;;;;;;;7.22;3.97;;;40.10;28.50;;;;;;4846413;29;20034;-82
2021/09/06 13:03:47;;;;;;;9.07;3.90;;;40.20;28.10;;;;;;4845738;29;20029;-82
2021/09/06 13:06:13;;;;;;;6.82;3.63;;;40.50;28.30;;;;;;4845976;29;20359;-82
2021/09/06 13:08:38;;;;;;;10.43;4.07;;;39.90;27.20;;;;;;4845689;29;20018;-82
2021/09/06 13:11:06;;;;;;;7.40;4.20;;;39.20;27.00;;;;;;4828979;29;20377;-81
2021/09/06 13:13:32;;;;;;;9.20;4.13;;;38.50;27.30;;;;;;4844933;29;20037;-82
2021/09/06 13:16:03;;;;;;;8.23;4.18;;;38.00;27.70;;;;;;4828717;29;20026;-82
2021/09/06 13:18:29;;;;;;;7.70;3.92;;;37.60;27.70;;;;;;4828957;29;20065;-83
2021/09/06 13:20:57;;;;;;;7.80;4.20;;;37.20;28.10;;;;;;4845199;29;20062;-83
2021/09/06 13:23:22;;;;;;;8.45;4.20;;;37.00;28.50;;;;;;4828866;29;20022;-83
2021/09/06 13:25:48;;;;;;;8.65;4.00;;;37.40;30.00;;;;;;4828714;29;20034;-83
2021/09/06 13:28:15;;;;;;;7.72;4.15;;;39.00;30.80;;;;;;4845131;29;20344;-84
2021/09/06 13:30:43;;;;;;;6.63;3.60;;;40.60;30.00;;;;;;4828810;29;20454;-83
2021/09/06 13:33:09;;;;;;;7.15;3.85;;;42.10;29.90;;;;;;4845268;29;20042;-84
2021/09/06 13:35:36;;;;;;;6.85;3.78;;;43.40;29.30;;;;;;4828441;29;20543;-84
2021/09/06 13:38:02;;;;;;;7.07;4.07;;;44.40;28.60;;;;;;4858993;29;20034;-84
2021/09/06 13:40:31;;;;;;;7.13;4.20;;;45.30;28.20;;;;;;4847061;29;20039;-80
2021/09/06 13:43:00;;;;;;;8.40;4.10;;;46.10;27.90;;;;;;4834967;29;20030;-84
2021/09/06 13:45:26;;;;;;;7.65;3.75;;;46.80;27.30;;;;;;4831466;29;20034;-84
2021/09/06 13:47:52;;;;;;;9.35;4.18;;;47.30;27.20;;;;;;4828698;29;20402;-85
2021/09/06 13:50:17;;;;;;;7.13;3.95;;;47.80;27.00;;;;;;4828394;29;20360;-84
2021/09/06 13:52:43;;;;;;;6.30;4.00;;;48.40;27.20;;;;;;4828722;29;20042;-85
2021/09/06 13:55:10;;;;;;;7.88;3.85;;;49.10;26.70;;;;;;4828367;29;20022;-84
2021/09/06 13:57:36;;;;;;;7.88;4.20;;;50.00;26.30;;;;;;4844996;29;20069;-84
2021/09/06 14:00:05;;;;;;;7.68;3.80;;;50.80;26.00;;;;;;4828093;29;20093;-84
2021/09/06 14:02:32;;;;;;;6.35;3.70;;;51.30;25.40;;;;;;4828285;29;20071;-84
2021/09/06 14:04:58;;;;;;;6.53;4.00;;;51.50;25.40;;;;;;4828426;29;20037;-85
2021/09/06 14:07:26;;;;;;;6.70;4.07;;;51.50;24.70;;;;;;4844743;29;20038;-85
2021/09/06 14:09:52;;;;;;;7.28;3.85;;;51.40;24.60;;;;;;4834902;29;20495;-85
2021/09/06 14:12:18;;;;;;;6.28;3.47;;;51.40;24.10;;;;;;4826329;29;20056;-85
2021/09/06 14:14:43;;;;;;;7.47;3.65;;;51.10;23.70;;;;;;4809948;29;20026;-85
2021/09/06 14:17:09;;;;;;;11.35;4.00;;;50.00;22.70;;;;;;4826919;29;20031;-84
2021/09/06 14:19:36;;;;;;;8.45;3.90;;;48.40;22.60;;;;;;4809884;29;20031;-84
2021/09/06 14:22:07;;;;;;;7.47;3.83;;;46.90;23.30;;;;;;4809633;29;20038;-84
2021/09/06 14:24:33;;;;;;;5.88;3.63;;;46.80;24.10;;;;;;4809812;29;20499;-85
2021/09/06 14:27:04;;;;;;;7.75;3.65;;;46.80;24.40;;;;;;4809873;29;20030;-84
2021/09/06 14:30:09;;;;;;;7.80;4.40;;;46.40;23.10;;;;;;4809699;29;20030;-84
2021/09/06 14:33:02;;;;;;;7.60;4.28;;;45.00;22.80;;;;;;4806641;29;20399;-82
2021/09/06 14:36:11;;;;;;;7.57;4.22;;;43.40;23.20;;;;;;4821966;29;20437;-83
2021/09/06 15:02:39;;;;;;;10.57;4.60;;;35.90;26.10;;;;;;4802854;24;20130;-81
2021/09/06 15:08:26;;;;;;;8.23;4.22;;;35.20;26.70;;;;;;4807348;29;20030;-82
2021/09/06 15:11:54;;;;;;;9.15;4.95;;;34.90;26.80;;;;;;4754765;30;20456;-83
2021/09/06 15:14:21;;;;;;;9.25;4.97;;;34.50;27.20;;;;;;4754638;30;20028;-82
2021/09/06 15:16:50;;;;;;;13.90;5.07;;;34.20;27.70;;;;;;4754594;30;20058;-83
2021/09/06 15:19:19;;;;;;;8.60;4.25;;;33.90;28.00;;;;;;4754225;30;20489;-82
2021/09/06 15:21:51;;;;;;;17.48;5.10;;;33.70;28.30;;;;;;4754343;30;20184;-82
2021/09/06 15:28:21;;;;;;;;;;;;;;;;;;;;;
2021/09/06 15:34:25;;;;;;;9.82;4.72;;;34.00;29.90;;;;;;4699955;30;20132;-82
2021/09/06 15:37:02;;;;;;;9.35;5.13;;;33.70;29.50;;;;;;4687171;30;20046;-86
2021/09/06 15:43:30;;;;;;;;;;;;;;;;;;;;;
2021/09/06 15:50:23;;;;;;;;;;;;;;;;;;;;;
2021/09/06 15:54:03;;;;;;;;;;;;;;;;;;;;;
2021/09/06 15:58:02;;;;;;;10.70;5.47;;;31.60;31.90;;;;;;4783623;29;20045;-85
2021/09/06 16:00:51;;;;;;;;;;;;;;;;;;;;;
2021/09/06 16:03:53;;;;;;;12.55;5.50;;;31.90;35.10;;;;;;4819465;29;20058;-85
2021/09/06 16:09:34;;;;;;;9.82;5.13;;;33.80;34.90;;;;;;4830423;29;20034;-82
2021/09/06 16:12:01;;;;;;;10.75;5.00;;;34.70;34.70;;;;;;4812288;29;20030;-82
2021/09/06 16:14:28;;;;;;;9.05;4.78;;;35.20;34.60;;;;;;4811680;29;20043;-83
2021/09/06 16:16:59;;;;;;;9.30;5.00;;;35.60;34.40;;;;;;4830361;29;20095;-85
2021/09/06 16:19:31;;;;;;;9.15;4.72;;;35.80;33.90;;;;;;4815000;29;20484;-86
2021/09/06 16:21:56;;;;;;;9.35;4.72;;;35.70;33.70;;;;;;4809547;29;20048;-84
2021/09/06 16:24:23;;;;;;;9.25;4.75;;;35.70;33.70;;;;;;4830852;29;20038;-82
2021/09/06 16:26:52;;;;;;;10.60;5.20;;;35.40;33.40;;;;;;4839085;29;20055;-85
2021/09/06 16:29:18;;;;;;;9.68;4.72;;;35.10;34.00;;;;;;4834687;29;20038;-85
2021/09/06 16:31:45;;;;;;;10.05;5.00;;;34.80;33.90;;;;;;4830437;29;20038;-84
2021/09/06 16:34:10;;;;;;;11.10;4.85;;;34.50;34.20;;;;;;4813891;29;20033;-84
2021/09/06 16:36:36;;;;;;;9.77;5.20;;;34.10;34.50;;;;;;4812587;29;20022;-84
2021/09/06 16:39:02;;;;;;;9.27;5.22;;;33.70;34.90;;;;;;4812205;29;20030;-83
2021/09/06 16:41:31;;;;;;;9.43;4.82;;;33.30;35.20;;;;;;4829185;29;20050;-85
2021/09/06 16:43:57;;;;;;;12.10;5.47;;;33.00;35.60;;;;;;4828185;29;20030;-83
2021/09/06 16:46:22;;;;;;;9.65;5.35;;;32.50;36.50;;;;;;4828411;29;20097;-83
2021/09/06 16:48:48;;;;;;;11.13;5.60;;;32.20;36.00;;;;;;4812989;29;20061;-83
2021/09/06 16:51:14;;;;;;;13.98;6.05;;;31.80;36.40;;;;;;4812072;29;20030;-83
2021/09/06 16:53:41;;;;;;;9.88;5.55;;;31.50;37.00;;;;;;4793863;29;20030;-83
2021/09/06 16:56:07;;;;;;;11.45;6.20;;;31.20;37.50;;;;;;4797623;29;20042;-85
2021/09/06 16:58:32;;;;;;;9.73;5.90;;;31.10;38.10;;;;;;4813137;29;20037;-85
2021/09/06 17:00:59;;;;;;;10.13;5.75;;;30.90;38.10;;;;;;4811789;29;20078;-84
2021/09/06 17:03:25;;;;;;;11.13;6.00;;;30.60;38.40;;;;;;4828057;29;20054;-83
2021/09/06 17:05:51;;;;;;;9.65;5.88;;;30.30;38.70;;;;;;4811733;29;20446;-85
2021/09/06 17:08:17;;;;;;;13.02;5.95;;;29.90;38.80;;;;;;4804199;29;20065;-84
2021/09/06 17:10:43;;;;;;;11.30;6.40;;;29.50;39.20;;;;;;4812540;29;20030;-85
2021/09/06 17:13:16;;;;;;;10.65;6.10;;;29.20;39.70;;;;;;4829481;29;20514;-84
2021/09/06 17:15:45;;;;;;;12.75;6.10;;;28.80;40.20;;;;;;4814926;29;20067;-86
2021/09/06 17:18:10;;;;;;;10.85;6.25;;;28.50;40.50;;;;;;4827672;29;20034;-86
2021/09/06 17:20:36;;;;;;;9.52;5.60;;;28.10;40.90;;;;;;4810758;29;20519;-86
2021/09/06 17:23:01;;;;;;;10.68;5.95;;;27.80;41.40;;;;;;4795456;29;20042;-86
2021/09/06 17:25:27;;;;;;;11.52;6.15;;;27.60;41.80;;;;;;4811183;29;20046;-86
2021/09/06 17:27:53;;;;;;;11.93;5.80;;;27.40;42.10;;;;;;4826221;29;20034;-86
2021/09/06 17:30:19;;;;;;;10.27;5.85;;;27.10;42.30;;;;;;4811001;29;20034;-86
2021/09/06 17:32:45;;;;;;;10.25;5.70;;;26.80;42.40;;;;;;4815140;29;20033;-90
2021/09/06 17:35:11;;;;;;;10.60;6.00;;;26.50;42.70;;;;;;4817802;29;20094;-90
2021/09/06 17:37:36;;;;;;;10.98;6.13;;;26.20;43.20;;;;;;4831134;29;20030;-84
2021/09/06 17:40:06;;;;;;;13.55;6.63;;;26.00;43.80;;;;;;4799156;29;20552;-83
2021/09/06 17:42:32;;;;;;;10.57;6.05;;;25.80;44.30;;;;;;4834449;29;20044;-91
2021/09/06 17:44:59;;;;;;;10.80;6.80;;;25.60;44.50;;;;;;4833912;29;20053;-86
2021/09/06 17:47:28;;;;;;;12.82;7.53;;;25.40;44.90;;;;;;4828300;29;20065;-92
2021/09/06 17:49:56;;;;;;;11.63;6.75;;;25.20;45.10;;;;;;4822318;29;20034;-94
2021/09/06 17:52:22;;;;;;;11.43;6.15;;;25.10;45.30;;;;;;4822522;29;20034;-93
2021/09/06 17:54:48;;;;;;;12.23;6.60;;;24.90;45.60;;;;;;4821112;29;20072;-91
2021/09/06 17:57:15;;;;;;;12.18;7.07;;;24.80;46.00;;;;;;4805315;29;20060;-89
2021/09/06 17:59:41;;;;;;;11.68;6.60;;;24.60;46.10;;;;;;4818253;29;20050;-89
2021/09/06 18:02:08;;;;;;;11.50;6.47;;;24.50;46.20;;;;;;4810086;29;20058;-89
2021/09/06 18:04:34;;;;;;;10.70;6.10;;;24.30;46.40;;;;;;4799932;29;20027;-89
2021/09/06 18:07:00;;;;;;;13.82;6.97;;;24.10;46.70;;;;;;4798937;29;20037;-90
2021/09/06 18:09:25;;;;;;;12.25;6.25;;;23.90;47.00;;;;;;4797727;29;20113;-90
2021/09/06 18:11:51;;;;;;;11.85;7.18;;;23.70;47.30;;;;;;4799492;29;20038;-90
2021/09/06 18:14:18;;;;;;;12.05;6.47;;;23.60;47.80;;;;;;4801726;29;20125;-90
2021/09/06 18:16:43;;;;;;;10.88;6.60;;;23.40;48.10;;;;;;4785685;29;20039;-92
2021/09/06 18:19:50;;;;;;;11.00;6.60;;;23.30;48.30;;;;;;4783025;29;20039;-86
2021/09/06 18:22:39;;;;;;;11.82;6.70;;;23.20;49.10;;;;;;4794745;29;20047;-88
2021/09/06 18:26:06;;;;;;;;;;;;;;;;;;;;;
2021/09/06 18:28:40;;;;;;;12.93;6.57;;;23.00;49.40;;;;;;4798348;30;20114;-90
2021/09/06 18:37:59;;;;;;;12.38;7.18;;;22.40;50.10;;;;;;4769076;29;20035;-91
2021/09/06 18:40:37;;;;;;;11.73;7.30;;;22.30;50.20;;;;;;4796836;29;20094;-92
2021/09/06 19:04:41;;;;;;;14.63;8.18;;;21.30;52.50;;;;;;5410140;24;20050;-87
2021/09/06 19:07:13;;;;;;;12.70;8.27;;;21.20;52.70;;;;;;4831681;29;20043;-90
2021/09/06 20:02:30;;;;;;;;;;;;;;;;;;;;;
2021/09/06 20:06:06;;;;;;;;;;;;;;;;;;;;;
2021/09/06 20:24:01;;;;;;;12.30;9.10;;;18.90;58.90;;;;;;4909223;24;20284;-94
2021/09/06 20:26:29;;;;;;;12.05;8.85;;;18.80;59.20;;;;;;4821701;29;20054;-94
2021/09/06 20:28:58;;;;;;;12.75;9.60;;;18.80;59.50;;;;;;4806762;29;20038;-93
2021/09/06 20:32:17;;;;;;;13.63;9.55;;;18.70;59.90;;;;;;4816298;29;20062;-93
2021/09/06 20:34:53;;;;;;;14.30;9.60;;;18.70;60.00;;;;;;4814385;29;20125;-94
2021/09/06 20:37:22;;;;;;;14.05;9.00;;;18.60;60.20;;;;;;4815225;29;20472;-94
2021/09/06 20:39:49;;;;;;;13.65;9.88;;;18.50;60.10;;;;;;4801045;29;20039;-94
2021/09/06 20:43:03;;;;;;;13.65;9.57;;;18.50;60.50;;;;;;4817489;29;20091;-92
2021/09/06 20:49:25;;;;;;;14.77;9.70;;;18.30;60.80;;;;;;4799033;29;20449;-92
2021/09/06 21:16:03;;;;;;;13.88;10.82;;;17.90;62.80;;;;;;5547306;24;20073;-94
